sensor_id;sensor_type;location;lat;lon;timestamp;pressure;altitude;pressure_sealevel;temperature;humidity
63493;BME280;49638;47.526;10.028;2023-06-14T00:02:00;91160.00;;;12.77;45.40
63493;BME280;49638;47.526;10.028;2023-06-14T00:05:00;91157.63;;;12.75;45.42
63493;BME280;49638;47.526;10.028;2023-06-14T00:08:01;91158.72;;;12.69;45.44
63493;BME280;49638;47.526;10.028;2023-06-14T00:11:03;91166.16;;;12.67;45.22
63493;BME280;49638;47.526;10.028;2023-06-14T00:14:03;91152.09;;;12.57;45.08
63493;BME280;49638;47.526;10.028;2023-06-14T00:17:04;91157.41;;;12.62;44.96
63493;BME280;49638;47.526;10.028;2023-06-14T00:20:04;91160.34;;;12.55;45.01
63493;BME280;49638;47.526;10.028;2023-06-14T00:23:07;91153.44;;;12.49;45.38
63493;BME280;49638;47.526;10.028;2023-06-14T00:26:08;91142.09;;;12.33;45.60
63493;BME280;49638;47.526;10.028;2023-06-14T00:29:08;91151.38;;;12.30;45.91
63493;BME280;49638;47.526;10.028;2023-06-14T00:32:09;91144.47;;;12.29;46.20
63493;BME280;49638;47.526;10.028;2023-06-14T00:35:09;91154.00;;;12.15;46.87
63493;BME280;49638;47.526;10.028;2023-06-14T00:38:10;91149.78;;;11.99;47.41
63493;BME280;49638;47.526;10.028;2023-06-14T00:41:10;91155.34;;;11.97;47.34
63493;BME280;49638;47.526;10.028;2023-06-14T00:44:11;91152.41;;;11.89;47.50
63493;BME280;49638;47.526;10.028;2023-06-14T00:47:13;91152.69;;;11.87;47.41
63493;BME280;49638;47.526;10.028;2023-06-14T00:50:13;91142.09;;;11.82;47.10
63493;BME280;49638;47.526;10.028;2023-06-14T00:53:17;91143.44;;;11.84;46.93
63493;BME280;49638;47.526;10.028;2023-06-14T00:56:25;91148.72;;;11.84;47.12
63493;BME280;49638;47.526;10.028;2023-06-14T00:59:26;91151.91;;;11.87;47.08
63493;BME280;49638;47.526;10.028;2023-06-14T01:02:26;91135.47;;;11.84;47.56
63493;BME280;49638;47.526;10.028;2023-06-14T01:05:26;91135.75;;;11.93;47.38
63493;BME280;49638;47.526;10.028;2023-06-14T01:08:40;91140.25;;;12.03;47.58
63493;BME280;49638;47.526;10.028;2023-06-14T01:14:53;91140.53;;;11.86;47.98
63493;BME280;49638;47.526;10.028;2023-06-14T01:17:54;91148.19;;;11.82;48.21
63493;BME280;49638;47.526;10.028;2023-06-14T01:21:02;91134.94;;;11.72;48.25
63493;BME280;49638;47.526;10.028;2023-06-14T01:24:05;91138.63;;;11.71;48.02
63493;BME280;49638;47.526;10.028;2023-06-14T01:27:06;91123.25;;;11.68;47.73
63493;BME280;49638;47.526;10.028;2023-06-14T01:30:08;91131.72;;;11.60;47.90
63493;BME280;49638;47.526;10.028;2023-06-14T01:33:12;91125.88;;;11.43;48.45
63493;BME280;49638;47.526;10.028;2023-06-14T01:36:14;91134.63;;;11.38;48.54
63493;BME280;49638;47.526;10.028;2023-06-14T01:39:15;91126.91;;;11.26;48.63
63493;BME280;49638;47.526;10.028;2023-06-14T01:42:16;91124.81;;;11.33;48.93
63493;BME280;49638;47.526;10.028;2023-06-14T01:45:18;91128.50;;;11.37;49.28
63493;BME280;49638;47.526;10.028;2023-06-14T01:48:19;91121.66;;;11.31;49.79
63493;BME280;49638;47.526;10.028;2023-06-14T01:51:20;91124.81;;;11.33;49.88
63493;BME280;49638;47.526;10.028;2023-06-14T01:54:20;91119.00;;;11.31;49.88
63493;BME280;49638;47.526;10.028;2023-06-14T01:57:22;91110.53;;;11.29;49.72
63493;BME280;49638;47.526;10.028;2023-06-14T02:00:22;91108.94;;;11.28;49.65
63493;BME280;49638;47.526;10.028;2023-06-14T02:03:23;91130.63;;;11.30;49.58
63493;BME280;49638;47.526;10.028;2023-06-14T02:06:24;91121.09;;;11.29;50.02
63493;BME280;49638;47.526;10.028;2023-06-14T02:09:27;91113.69;;;11.26;49.97
63493;BME280;49638;47.526;10.028;2023-06-14T02:12:27;91113.72;;;11.31;49.80
63493;BME280;49638;47.526;10.028;2023-06-14T02:15:27;91105.75;;;11.21;50.15
63493;BME280;49638;47.526;10.028;2023-06-14T02:18:33;91111.03;;;11.21;50.29
63493;BME280;49638;47.526;10.028;2023-06-14T02:21:33;91107.34;;;11.22;50.52
63493;BME280;49638;47.526;10.028;2023-06-14T02:24:34;91115.00;;;11.19;50.80
63493;BME280;49638;47.526;10.028;2023-06-14T02:27:35;91120.03;;;11.15;51.14
63493;BME280;49638;47.526;10.028;2023-06-14T02:30:35;91115.25;;;11.12;51.38
63493;BME280;49638;47.526;10.028;2023-06-14T02:33:36;91104.66;;;11.02;51.53
63493;BME280;49638;47.526;10.028;2023-06-14T02:36:36;91103.06;;;11.01;51.51
63493;BME280;49638;47.526;10.028;2023-06-14T02:39:41;91112.56;;;11.07;51.34
63493;BME280;49638;47.526;10.028;2023-06-14T02:42:42;91114.44;;;11.06;51.30
63493;BME280;49638;47.526;10.028;2023-06-14T02:45:42;91119.47;;;11.08;51.55
63493;BME280;49638;47.526;10.028;2023-06-14T02:48:42;91112.56;;;11.07;51.90
63493;BME280;49638;47.526;10.028;2023-06-14T02:51:42;91118.94;;;11.06;52.17
63493;BME280;49638;47.526;10.028;2023-06-14T02:54:43;91108.88;;;10.98;51.76
63493;BME280;49638;47.526;10.028;2023-06-14T02:57:43;91110.19;;;10.95;51.98
63493;BME280;49638;47.526;10.028;2023-06-14T03:00:43;91120.75;;;10.95;52.21
63493;BME280;49638;47.526;10.028;2023-06-14T03:03:44;91119.97;;;10.95;52.25
63493;BME280;49638;47.526;10.028;2023-06-14T03:06:44;91123.09;;;10.86;52.52
63493;BME280;49638;47.526;10.028;2023-06-14T03:09:44;91122.84;;;10.88;52.51
63493;BME280;49638;47.526;10.028;2023-06-14T03:12:45;91131.56;;;10.94;52.58
63493;BME280;49638;47.526;10.028;2023-06-14T03:15:45;91138.19;;;10.96;52.61
63493;BME280;49638;47.526;10.028;2023-06-14T03:18:45;91133.97;;;10.95;52.61
63493;BME280;49638;47.526;10.028;2023-06-14T03:21:46;91133.44;;;10.98;52.35
63493;BME280;49638;47.526;10.028;2023-06-14T03:24:46;91137.91;;;10.93;52.69
63493;BME280;49638;47.526;10.028;2023-06-14T03:27:47;91139.50;;;10.94;52.53
63493;BME280;49638;47.526;10.028;2023-06-14T03:30:47;91131.00;;;10.86;52.75
63493;BME280;49638;47.526;10.028;2023-06-14T03:33:48;91138.63;;;10.73;53.50
63493;BME280;49638;47.526;10.028;2023-06-14T03:36:48;91125.88;;;10.54;53.77
63493;BME280;49638;47.526;10.028;2023-06-14T03:39:49;91138.81;;;10.56;53.92
63493;BME280;49638;47.526;10.028;2023-06-14T03:42:49;91140.38;;;10.52;53.92
63493;BME280;49638;47.526;10.028;2023-06-14T03:45:49;91148.34;;;10.62;54.06
63493;BME280;49638;47.526;10.028;2023-06-14T03:48:50;91148.34;;;10.62;54.13
63493;BME280;49638;47.526;10.028;2023-06-14T03:51:51;91160.00;;;10.66;54.46
63493;BME280;49638;47.526;10.028;2023-06-14T03:54:52;91155.53;;;10.67;54.58
63493;BME280;49638;47.526;10.028;2023-06-14T03:57:53;91160.56;;;10.68;54.77
63493;BME280;49638;47.526;10.028;2023-06-14T04:00:53;91157.41;;;10.71;54.52
63493;BME280;49638;47.526;10.028;2023-06-14T04:03:53;91162.22;;;10.84;54.57
63493;BME280;49638;47.526;10.028;2023-06-14T04:06:55;91159.06;;;10.93;54.04
63493;BME280;49638;47.526;10.028;2023-06-14T04:09:56;91163.09;;;11.05;54.24
63493;BME280;49638;47.526;10.028;2023-06-14T04:12:56;91159.66;;;11.10;54.56
63493;BME280;49638;47.526;10.028;2023-06-14T04:15:57;91156.00;;;11.26;54.36
63493;BME280;49638;47.526;10.028;2023-06-14T04:18:57;91166.47;;;11.89;53.52
63493;BME280;49638;47.526;10.028;2023-06-14T04:21:58;91170.94;;;12.45;52.46
63493;BME280;49638;47.526;10.028;2023-06-14T04:25:02;91180.09;;;13.03;54.20
63493;BME280;49638;47.526;10.028;2023-06-14T04:28:02;91171.25;;;13.23;51.63
63493;BME280;49638;47.526;10.028;2023-06-14T04:31:03;91173.69;;;13.75;50.57
63493;BME280;49638;47.526;10.028;2023-06-14T04:34:04;91168.78;;;14.26;49.77
63493;BME280;49638;47.526;10.028;2023-06-14T04:37:05;91176.31;;;14.82;49.43
63493;BME280;49638;47.526;10.028;2023-06-14T04:40:08;91178.44;;;15.28;48.97
63493;BME280;49638;47.526;10.028;2023-06-14T04:43:09;91168.22;;;15.59;48.69
63493;BME280;49638;47.526;10.028;2023-06-14T04:46:12;91183.03;;;16.08;47.92
63493;BME280;49638;47.526;10.028;2023-06-14T04:49:15;91181.41;;;16.26;48.28
63493;BME280;49638;47.526;10.028;2023-06-14T04:52:15;91175.75;;;16.47;47.94
63493;BME280;49638;47.526;10.028;2023-06-14T04:55:17;91181.06;;;16.66;47.78
63493;BME280;49638;47.526;10.028;2023-06-14T04:58:19;91181.75;;;16.90;47.73
63493;BME280;49638;47.526;10.028;2023-06-14T05:01:20;91182.88;;;17.17;47.32
63493;BME280;49638;47.526;10.028;2023-06-14T05:04:21;91185.75;;;17.34;47.38
63493;BME280;49638;47.526;10.028;2023-06-14T05:07:22;91191.59;;;17.50;47.45
63493;BME280;49638;47.526;10.028;2023-06-14T05:10:24;91196.13;;;17.63;47.28
63493;BME280;49638;47.526;10.028;2023-06-14T05:13:24;91199.78;;;17.81;47.19
63493;BME280;49638;47.526;10.028;2023-06-14T05:16:27;91191.16;;;17.98;46.65
63493;BME280;49638;47.526;10.028;2023-06-14T05:19:29;91194.91;;;18.11;46.40
63493;BME280;49638;47.526;10.028;2023-06-14T05:22:29;91196.84;;;18.19;46.31
63493;BME280;49638;47.526;10.028;2023-06-14T05:25:30;91184.81;;;18.30;46.29
63493;BME280;49638;47.526;10.028;2023-06-14T05:28:30;91184.16;;;18.47;46.18
63493;BME280;49638;47.526;10.028;2023-06-14T05:31:30;91192.72;;;18.58;45.69
63493;BME280;49638;47.526;10.028;2023-06-14T05:34:31;91187.13;;;18.68;45.60
63493;BME280;49638;47.526;10.028;2023-06-14T05:37:31;91188.06;;;18.86;45.69
63493;BME280;49638;47.526;10.028;2023-06-14T05:40:32;91191.28;;;18.97;45.68
63493;BME280;49638;47.526;10.028;2023-06-14T05:43:32;91196.50;;;19.02;45.52
63493;BME280;49638;47.526;10.028;2023-06-14T05:46:32;91194.81;;;19.06;45.52
63493;BME280;49638;47.526;10.028;2023-06-14T05:49:33;91185.84;;;19.10;45.54
63493;BME280;49638;47.526;10.028;2023-06-14T05:52:34;91185.56;;;19.21;45.54
63493;BME280;49638;47.526;10.028;2023-06-14T05:55:35;91186.84;;;19.23;45.16
63493;BME280;49638;47.526;10.028;2023-06-14T05:58:36;91182.13;;;19.20;44.98
63493;BME280;49638;47.526;10.028;2023-06-14T06:01:36;91193.34;;;19.31;45.26
63493;BME280;49638;47.526;10.028;2023-06-14T06:04:36;91190.00;;;19.25;45.35
63493;BME280;49638;47.526;10.028;2023-06-14T06:07:37;91183.34;;;19.14;45.36
63493;BME280;49638;47.526;10.028;2023-06-14T06:10:37;91194.28;;;19.26;45.72
63493;BME280;49638;47.526;10.028;2023-06-14T06:13:38;91203.78;;;19.41;45.25
63493;BME280;49638;47.526;10.028;2023-06-14T06:16:39;91204.47;;;19.47;44.74
63493;BME280;49638;47.526;10.028;2023-06-14T06:19:39;91204.47;;;19.47;44.81
63493;BME280;49638;47.526;10.028;2023-06-14T06:22:40;91213.38;;;19.65;43.95
63493;BME280;49638;47.526;10.028;2023-06-14T06:25:40;91212.16;;;19.79;43.41
63493;BME280;49638;47.526;10.028;2023-06-14T06:28:40;91218.47;;;19.83;43.32
63493;BME280;49638;47.526;10.028;2023-06-14T06:31:40;91218.50;;;19.92;42.70
63493;BME280;49638;47.526;10.028;2023-06-14T06:34:41;91223.25;;;20.04;42.65
63493;BME280;49638;47.526;10.028;2023-06-14T06:37:42;91229.28;;;20.18;42.32
63493;BME280;49638;47.526;10.028;2023-06-14T06:40:42;91220.78;;;20.25;42.04
63493;BME280;49638;47.526;10.028;2023-06-14T06:43:42;91213.50;;;20.08;41.75
63493;BME280;49638;47.526;10.028;2023-06-14T06:46:43;91225.00;;;20.17;41.90
63493;BME280;49638;47.526;10.028;2023-06-14T06:49:43;91233.56;;;20.19;42.07
63493;BME280;49638;47.526;10.028;2023-06-14T06:52:44;91224.38;;;20.03;41.88
63493;BME280;49638;47.526;10.028;2023-06-14T06:55:45;91238.25;;;20.05;41.66
63493;BME280;49638;47.526;10.028;2023-06-14T06:58:45;91234.75;;;19.96;41.12
63493;BME280;49638;47.526;10.028;2023-06-14T07:01:45;91244.09;;;20.07;40.61
63493;BME280;49638;47.526;10.028;2023-06-14T07:04:46;91241.09;;;20.17;40.76
63493;BME280;49638;47.526;10.028;2023-06-14T07:07:46;91236.22;;;20.19;40.52
63493;BME280;49638;47.526;10.028;2023-06-14T07:10:47;91239.88;;;20.23;40.37
63493;BME280;49638;47.526;10.028;2023-06-14T07:13:47;91232.44;;;20.20;40.04
63493;BME280;49638;47.526;10.028;2023-06-14T07:16:47;91241.28;;;20.21;39.91
63493;BME280;49638;47.526;10.028;2023-06-14T07:19:49;91247.78;;;20.28;39.87
63493;BME280;49638;47.526;10.028;2023-06-14T07:22:49;91243.38;;;20.32;40.10
63493;BME280;49638;47.526;10.028;2023-06-14T07:25:49;91250.00;;;20.35;39.77
63493;BME280;49638;47.526;10.028;2023-06-14T07:28:50;91254.41;;;20.31;39.66
63493;BME280;49638;47.526;10.028;2023-06-14T07:31:51;91260.25;;;20.33;39.12
63493;BME280;49638;47.526;10.028;2023-06-14T07:34:51;91256.75;;;20.24;38.91
63493;BME280;49638;47.526;10.028;2023-06-14T07:37:51;91254.84;;;20.16;38.57
63493;BME280;49638;47.526;10.028;2023-06-14T07:40:51;91252.63;;;20.09;38.46
63493;BME280;49638;47.526;10.028;2023-06-14T07:43:52;91256.25;;;20.13;38.76
63493;BME280;49638;47.526;10.028;2023-06-14T07:46:52;91252.97;;;20.16;38.55
63493;BME280;49638;47.526;10.028;2023-06-14T07:49:53;91265.59;;;20.24;38.63
63493;BME280;49638;47.526;10.028;2023-06-14T07:52:53;91259.72;;;20.14;38.07
63493;BME280;49638;47.526;10.028;2023-06-14T07:55:53;91267.78;;;20.05;37.90
63493;BME280;49638;47.526;10.028;2023-06-14T07:58:54;91263.31;;;19.92;37.74
63493;BME280;49638;47.526;10.028;2023-06-14T08:01:54;91250.19;;;19.90;37.59
63493;BME280;49638;47.526;10.028;2023-06-14T08:04:55;91256.50;;;19.85;37.74
63493;BME280;49638;47.526;10.028;2023-06-14T08:07:55;91267.22;;;19.85;37.79
63493;BME280;49638;47.526;10.028;2023-06-14T08:10:55;91250.63;;;19.75;37.94
63493;BME280;49638;47.526;10.028;2023-06-14T08:13:56;91258.53;;;19.80;37.93
63493;BME280;49638;47.526;10.028;2023-06-14T08:16:56;91267.50;;;19.75;37.41
63493;BME280;49638;47.526;10.028;2023-06-14T08:19:56;91261.66;;;19.73;38.00
63493;BME280;49638;47.526;10.028;2023-06-14T08:22:57;91257.63;;;19.62;37.71
63493;BME280;49638;47.526;10.028;2023-06-14T08:25:58;91274.00;;;19.52;37.77
63493;BME280;49638;47.526;10.028;2023-06-14T08:29:01;91270.78;;;19.41;37.62
63493;BME280;49638;47.526;10.028;2023-06-14T08:32:01;91269.50;;;19.38;37.53
63493;BME280;49638;47.526;10.028;2023-06-14T08:35:02;91268.09;;;19.41;37.93
63493;BME280;49638;47.526;10.028;2023-06-14T08:38:03;91268.06;;;19.32;38.22
63493;BME280;49638;47.526;10.028;2023-06-14T08:41:05;91277.06;;;19.36;38.47
63493;BME280;49638;47.526;10.028;2023-06-14T08:44:08;91284.19;;;19.19;38.24
63493;BME280;49638;47.526;10.028;2023-06-14T08:47:08;91282.94;;;19.16;38.41
63493;BME280;49638;47.526;10.028;2023-06-14T08:50:10;91272.59;;;19.23;38.40
63493;BME280;49638;47.526;10.028;2023-06-14T08:53:11;91283.34;;;19.32;38.94
63493;BME280;49638;47.526;10.028;2023-06-14T08:56:16;91286.38;;;19.39;38.73
63493;BME280;49638;47.526;10.028;2023-06-14T08:59:17;91290.22;;;19.47;38.94
63493;BME280;49638;47.526;10.028;2023-06-14T09:02:18;91292.75;;;19.52;39.06
63493;BME280;49638;47.526;10.028;2023-06-14T09:05:19;91282.47;;;19.45;39.04
63493;BME280;49638;47.526;10.028;2023-06-14T09:08:19;91295.09;;;19.45;38.16
63493;BME280;49638;47.526;10.028;2023-06-14T09:11:22;91292.75;;;19.52;38.74
63493;BME280;49638;47.526;10.028;2023-06-14T09:14:25;91289.91;;;19.48;37.02
63493;BME280;49638;47.526;10.028;2023-06-14T09:17:26;91288.22;;;19.61;38.23
63493;BME280;49638;47.526;10.028;2023-06-14T09:20:26;91286.78;;;19.55;38.16
63493;BME280;49638;47.526;10.028;2023-06-14T09:23:26;91293.47;;;19.66;37.32
63493;BME280;49638;47.526;10.028;2023-06-14T09:26:26;91288.78;;;19.72;37.77
63493;BME280;49638;47.526;10.028;2023-06-14T09:29:27;91291.34;;;19.77;37.51
63493;BME280;49638;47.526;10.028;2023-06-14T09:32:28;91291.97;;;19.82;37.31
63493;BME280;49638;47.526;10.028;2023-06-14T09:35:31;91292.03;;;19.91;37.19
63493;BME280;49638;47.526;10.028;2023-06-14T09:38:34;91295.50;;;20.00;35.71
63493;BME280;49638;47.526;10.028;2023-06-14T09:41:39;91293.97;;;20.08;36.29
63493;BME280;49638;47.526;10.028;2023-06-14T09:44:40;91293.97;;;20.08;37.37
63493;BME280;49638;47.526;10.028;2023-06-14T09:47:41;91294.44;;;20.10;37.15
63493;BME280;49638;47.526;10.028;2023-06-14T09:50:42;91295.88;;;20.16;37.15
63493;BME280;49638;47.526;10.028;2023-06-14T09:53:43;91300.31;;;20.21;37.30
63493;BME280;49638;47.526;10.028;2023-06-14T09:56:47;91297.50;;;20.26;36.43
63493;BME280;49638;47.526;10.028;2023-06-14T09:59:53;91292.13;;;20.26;36.60
63493;BME280;49638;47.526;10.028;2023-06-14T10:03:00;91299.69;;;20.24;36.65
63493;BME280;49638;47.526;10.028;2023-06-14T10:06:05;91306.31;;;20.26;36.55
63493;BME280;49638;47.526;10.028;2023-06-14T10:09:09;91306.03;;;20.28;37.11
63493;BME280;49638;47.526;10.028;2023-06-14T10:12:10;91290.50;;;20.16;36.65
63493;BME280;49638;47.526;10.028;2023-06-14T10:15:18;91300.31;;;20.21;34.86
63493;BME280;49638;47.526;10.028;2023-06-14T10:18:34;91300.47;;;20.24;35.37
63493;BME280;49638;47.526;10.028;2023-06-14T10:21:58;91302.19;;;20.20;32.85
63493;BME280;49638;47.526;10.028;2023-06-14T10:25:01;91294.78;;;20.17;33.19
63493;BME280;49638;47.526;10.028;2023-06-14T10:31:13;91288.78;;;20.20;37.05
63493;BME280;49638;47.526;10.028;2023-06-14T10:37:24;91298.78;;;20.28;36.20
63493;BME280;49638;47.526;10.028;2023-06-14T10:40:31;91294.47;;;20.19;33.64
63493;BME280;49638;47.526;10.028;2023-06-14T10:43:31;91300.97;;;20.26;36.57
63493;BME280;49638;47.526;10.028;2023-06-14T10:46:31;91303.50;;;20.31;36.46
63493;BME280;49638;47.526;10.028;2023-06-14T10:49:43;91293.56;;;20.32;33.65
63493;BME280;49638;47.526;10.028;2023-06-14T10:52:44;91294.84;;;20.35;36.37
63493;BME280;49638;47.526;10.028;2023-06-14T10:55:45;91294.03;;;20.34;36.22
63493;BME280;49638;47.526;10.028;2023-06-14T10:58:46;91298.59;;;20.33;36.12
63493;BME280;49638;47.526;10.028;2023-06-14T11:01:57;91298.94;;;20.32;35.70
63493;BME280;49638;47.526;10.028;2023-06-14T11:05:04;91285.81;;;20.30;35.55
63493;BME280;49638;47.526;10.028;2023-06-14T11:11:21;91301.28;;;20.33;34.84
63493;BME280;49638;47.526;10.028;2023-06-14T11:14:22;91292.28;;;20.29;35.77
63493;BME280;49638;47.526;10.028;2023-06-14T11:17:22;91294.19;;;20.38;35.76
63493;BME280;49638;47.526;10.028;2023-06-14T11:20:27;91303.84;;;20.39;34.63
63493;BME280;49638;47.526;10.028;2023-06-14T11:23:27;91282.50;;;20.33;35.47
63493;BME280;49638;47.526;10.028;2023-06-14T11:26:30;91299.44;;;20.43;35.72
63493;BME280;49638;47.526;10.028;2023-06-14T11:29:30;91293.72;;;20.44;35.44
63493;BME280;49638;47.526;10.028;2023-06-14T11:32:31;91297.69;;;20.47;35.45
63493;BME280;49638;47.526;10.028;2023-06-14T11:35:32;91294.72;;;20.48;35.51
63493;BME280;49638;47.526;10.028;2023-06-14T11:38:36;91292.50;;;20.50;34.47
63493;BME280;49638;47.526;10.028;2023-06-14T11:41:44;91287.41;;;20.40;34.64
63493;BME280;49638;47.526;10.028;2023-06-14T11:44:49;91294.22;;;20.46;34.25
63493;BME280;49638;47.526;10.028;2023-06-14T11:47:49;91277.63;;;20.44;35.49
63493;BME280;49638;47.526;10.028;2023-06-14T11:50:50;91280.78;;;20.46;35.86
63493;BME280;49638;47.526;10.028;2023-06-14T11:53:51;91285.25;;;20.51;35.96
63493;BME280;49638;47.526;10.028;2023-06-14T11:56:52;91287.94;;;20.51;35.89
63493;BME280;49638;47.526;10.028;2023-06-14T11:59:54;91281.78;;;20.50;35.75
63493;BME280;49638;47.526;10.028;2023-06-14T12:02:57;91282.59;;;20.60;35.83
63493;BME280;49638;47.526;10.028;2023-06-14T12:06:06;91281.63;;;20.64;34.84
63493;BME280;49638;47.526;10.028;2023-06-14T12:09:11;91292.53;;;20.68;33.64
63493;BME280;49638;47.526;10.028;2023-06-14T12:12:16;91280.06;;;20.63;35.93
63493;BME280;49638;47.526;10.028;2023-06-14T12:15:17;91267.44;;;20.55;36.01
63493;BME280;49638;47.526;10.028;2023-06-14T12:18:17;91275.16;;;20.57;35.61
63493;BME280;49638;47.526;10.028;2023-06-14T12:21:17;91277.50;;;20.58;35.63
63493;BME280;49638;47.526;10.028;2023-06-14T12:24:18;91281.81;;;20.59;35.64
63493;BME280;49638;47.526;10.028;2023-06-14T12:27:21;91277.84;;;20.57;35.02
63493;BME280;49638;47.526;10.028;2023-06-14T12:30:23;91284.16;;;20.52;35.23
63493;BME280;49638;47.526;10.028;2023-06-14T12:33:23;91276.69;;;20.49;34.60
63493;BME280;49638;47.526;10.028;2023-06-14T12:36:24;91271.53;;;20.52;35.59
63493;BME280;49638;47.526;10.028;2023-06-14T12:39:25;91280.19;;;20.58;35.78
63493;BME280;49638;47.526;10.028;2023-06-14T12:42:25;91278.16;;;20.64;35.39
63493;BME280;49638;47.526;10.028;2023-06-14T12:45:26;91287.50;;;20.66;35.49
63493;BME280;49638;47.526;10.028;2023-06-14T12:48:26;91284.97;;;20.70;35.61
63493;BME280;49638;47.526;10.028;2023-06-14T12:51:31;91272.50;;;20.65;35.52
63493;BME280;49638;47.526;10.028;2023-06-14T12:54:31;91276.13;;;20.69;35.81
63493;BME280;49638;47.526;10.028;2023-06-14T12:57:31;91287.34;;;20.80;35.48
63493;BME280;49638;47.526;10.028;2023-06-14T13:00:31;91280.53;;;20.74;35.52
63493;BME280;49638;47.526;10.028;2023-06-14T13:03:32;91288.59;;;20.83;35.72
63493;BME280;49638;47.526;10.028;2023-06-14T13:06:33;91291.75;;;20.85;35.45
63493;BME280;49638;47.526;10.028;2023-06-14T13:09:33;91287.34;;;20.80;35.32
63493;BME280;49638;47.526;10.028;2023-06-14T13:12:34;91282.25;;;20.78;35.23
63493;BME280;49638;47.526;10.028;2023-06-14T13:15:34;91290.19;;;20.84;35.43
63493;BME280;49638;47.526;10.028;2023-06-14T13:18:35;91293.97;;;20.83;35.57
63493;BME280;49638;47.526;10.028;2023-06-14T13:21:35;91296.66;;;20.83;35.43
63493;BME280;49638;47.526;10.028;2023-06-14T13:24:36;91290.81;;;20.81;35.31
63493;BME280;49638;47.526;10.028;2023-06-14T13:27:36;91285.75;;;20.79;35.05
63493;BME280;49638;47.526;10.028;2023-06-14T13:30:36;91297.13;;;20.85;35.23
63493;BME280;49638;47.526;10.028;2023-06-14T13:33:37;91286.38;;;20.85;35.08
63493;BME280;49638;47.526;10.028;2023-06-14T13:36:37;91294.59;;;20.97;35.43
63493;BME280;49638;47.526;10.028;2023-06-14T13:39:37;91297.75;;;20.99;35.45
63493;BME280;49638;47.526;10.028;2023-06-14T13:42:37;91296.19;;;20.98;35.43
63493;BME280;49638;47.526;10.028;2023-06-14T13:45:38;91291.75;;;21.02;35.70
63493;BME280;49638;47.526;10.028;2023-06-14T13:48:38;91291.91;;;21.06;35.79
63493;BME280;49638;47.526;10.028;2023-06-14T13:51:38;91299.03;;;21.10;35.70
63493;BME280;49638;47.526;10.028;2023-06-14T13:54:39;91289.84;;;21.11;35.72
63493;BME280;49638;47.526;10.028;2023-06-14T13:57:39;91303.47;;;21.06;35.83
63493;BME280;49638;47.526;10.028;2023-06-14T14:00:39;91304.25;;;21.07;35.57
63493;BME280;49638;47.526;10.028;2023-06-14T14:03:40;91296.03;;;21.03;35.55
63493;BME280;49638;47.526;10.028;2023-06-14T14:06:40;91306.78;;;21.03;35.52
63493;BME280;49638;47.526;10.028;2023-06-14T14:09:40;91289.69;;;20.99;35.29
63493;BME280;49638;47.526;10.028;2023-06-14T14:12:42;91294.91;;;21.04;35.68
63493;BME280;49638;47.526;10.028;2023-06-14T14:15:43;91297.28;;;21.06;35.72
63493;BME280;49638;47.526;10.028;2023-06-14T14:18:46;91289.22;;;21.06;35.56
63493;BME280;49638;47.526;10.028;2023-06-14T14:21:46;91294.13;;;21.03;35.93
63493;BME280;49638;47.526;10.028;2023-06-14T14:24:46;91283.53;;;21.07;35.52
63493;BME280;49638;47.526;10.028;2023-06-14T14:27:47;91290.47;;;21.08;35.70
63493;BME280;49638;47.526;10.028;2023-06-14T14:30:47;91295.22;;;21.11;35.72
63493;BME280;49638;47.526;10.028;2023-06-14T14:33:48;91291.75;;;21.11;36.17
63493;BME280;49638;47.526;10.028;2023-06-14T14:36:48;91287.34;;;21.06;35.98
63493;BME280;49638;47.526;10.028;2023-06-14T14:39:48;91295.22;;;21.11;35.83
63493;BME280;49638;47.526;10.028;2023-06-14T14:42:49;91293.81;;;21.05;36.15
63493;BME280;49638;47.526;10.028;2023-06-14T14:45:49;91293.00;;;21.05;35.90
63493;BME280;49638;47.526;10.028;2023-06-14T14:48:50;91303.13;;;21.08;35.98
63493;BME280;49638;47.526;10.028;2023-06-14T14:51:50;91300.78;;;21.06;35.75
63493;BME280;49638;47.526;10.028;2023-06-14T14:54:50;91306.44;;;21.05;35.76
63493;BME280;49638;47.526;10.028;2023-06-14T14:57:51;91302.97;;;21.04;35.67
63493;BME280;49638;47.526;10.028;2023-06-14T15:00:51;91307.22;;;21.05;35.64
63493;BME280;49638;47.526;10.028;2023-06-14T15:03:52;91312.44;;;21.01;35.79
63493;BME280;49638;47.526;10.028;2023-06-14T15:06:52;91307.41;;;21.00;35.64
63493;BME280;49638;47.526;10.028;2023-06-14T15:09:52;91311.03;;;21.04;35.70
63493;BME280;49638;47.526;10.028;2023-06-14T15:12:53;91307.72;;;21.07;35.83
63493;BME280;49638;47.526;10.028;2023-06-14T15:15:53;91310.06;;;21.09;35.93
63493;BME280;49638;47.526;10.028;2023-06-14T15:18:53;91316.91;;;21.06;35.59
63493;BME280;49638;47.526;10.028;2023-06-14T15:21:53;91312.59;;;21.05;35.71
63493;BME280;49638;47.526;10.028;2023-06-14T15:24:54;91319.72;;;21.01;35.75
63493;BME280;49638;47.526;10.028;2023-06-14T15:27:55;91308.66;;;20.94;35.93
63493;BME280;49638;47.526;10.028;2023-06-14T15:30:55;91313.25;;;21.02;36.23
63493;BME280;49638;47.526;10.028;2023-06-14T15:33:56;91311.81;;;21.05;35.81
63493;BME280;49638;47.526;10.028;2023-06-14T15:36:57;91307.72;;;21.07;35.94
63493;BME280;49638;47.526;10.028;2023-06-14T15:39:57;91309.13;;;21.05;36.03
63493;BME280;49638;47.526;10.028;2023-06-14T15:42:57;91317.69;;;21.07;36.26
63493;BME280;49638;47.526;10.028;2023-06-14T15:45:57;91318.47;;;21.07;36.17
63493;BME280;49638;47.526;10.028;2023-06-14T15:48:58;91308.84;;;21.06;36.06
63493;BME280;49638;47.526;10.028;2023-06-14T15:51:58;91317.53;;;21.03;36.18
63493;BME280;49638;47.526;10.028;2023-06-14T15:54:58;91301.41;;;20.94;36.14
63493;BME280;49638;47.526;10.028;2023-06-14T15:57:59;91311.34;;;20.94;36.05
63493;BME280;49638;47.526;10.028;2023-06-14T16:00:59;91310.56;;;20.93;36.40